Aviation Digital Data Service (ADDS)

Output produced by METARs form (0243 UTC 22 April 2019)
found at http://www.aviationweather.gov/metar/data/
 
METAR text: MMPB 220143Z 18005KT 10SM FEW090 20/03 A3031 RMK 8/030 HZY
Conditions at: MMPB (PUEBLA , MX) observed 0143 UTC 22 April 2019
Temperature: 20.0°C (68°F)
Dewpoint: 3.0°C (37°F) [RH = 32%]
Pressure (altimeter): 30.31 inches Hg (1026.5 mb)
Winds: from the S (180 degrees) at 6 MPH (5 knots; 2.6 m/s)
Visibility: 10 or more miles (16+ km)
Ceiling: at least 12,000 feet AGL
Clouds: few clouds at 9000 feet AGL
Weather: no significant weather observed at this time

METAR text: MMPB 220042Z 20010KT 9SM SCT090 23/03 A3028 RMK 8/030 HZY
Conditions at: MMPB (PUEBLA , MX) observed 0042 UTC 22 April 2019
Temperature: 23.0°C (73°F)
Dewpoint: 3.0°C (37°F) [RH = 27%]
Pressure (altimeter): 30.28 inches Hg (1025.5 mb)
Winds: from the SSW (200 degrees) at 12 MPH (10 knots; 5.1 m/s)
Visibility: 9 miles (14 km)
Ceiling: at least 12,000 feet AGL
Clouds: scattered clouds at 9000 feet AGL
Weather: no significant weather observed at this time

METAR text: MMPB 212346Z 18013KT 9SM SCT090 23/03 A3026 RMK 8/030 HZY
Conditions at: MMPB (PUEBLA , MX) observed 2346 UTC 21 April 2019
Temperature: 23.0°C (73°F)
Dewpoint: 3.0°C (37°F) [RH = 27%]
Pressure (altimeter): 30.26 inches Hg (1024.8 mb)
Winds: from the S (180 degrees) at 15 MPH (13 knots; 6.7 m/s)
Visibility: 9 miles (14 km)
Ceiling: at least 12,000 feet AGL
Clouds: scattered clouds at 9000 feet AGL
Weather: no significant weather observed at this time

METAR text: MMPB 212250Z 17012KT 9SM FEW020 SCT090 25/04 A3025 RMK 8/130 HZY
Conditions at: MMPB (PUEBLA , MX) observed 2250 UTC 21 April 2019
Temperature: 25.0°C (77°F)
Dewpoint: 4.0°C (39°F) [RH = 26%]
Pressure (altimeter): 30.25 inches Hg (1024.5 mb)
Winds: from the S (170 degrees) at 14 MPH (12 knots; 6.2 m/s)
Visibility: 9 miles (14 km)
Ceiling: at least 12,000 feet AGL
Clouds: few clouds at 2000 feet AGL
scattered clouds at 9000 feet AGL
Weather: no significant weather observed at this time

METAR text: MMPB 212149Z 18019KT 9SM FEW090 27/03 A3025 RMK 8/030 HZY
Conditions at: MMPB (PUEBLA , MX) observed 2149 UTC 21 April 2019
Temperature: 27.0°C (81°F)
Dewpoint: 3.0°C (37°F) [RH = 21%]
Pressure (altimeter): 30.25 inches Hg (1024.5 mb)
Winds: from the S (180 degrees) at 22 MPH (19 knots; 9.8 m/s)
Visibility: 9 miles (14 km)
Ceiling: at least 12,000 feet AGL
Clouds: few clouds at 9000 feet AGL
Weather: no significant weather observed at this time

METAR text: MMPB 212040Z 17012KT 9SM FEW020 26/02 A3027 RMK 8/100 HZY
Conditions at: MMPB (PUEBLA , MX) observed 2040 UTC 21 April 2019
Temperature: 26.0°C (79°F)
Dewpoint: 2.0°C (36°F) [RH = 21%]
Pressure (altimeter): 30.27 inches Hg (1025.1 mb)
Winds: from the S (170 degrees) at 14 MPH (12 knots; 6.2 m/s)
Visibility: 9 miles (14 km)
Ceiling: at least 12,000 feet AGL
Clouds: few clouds at 2000 feet AGL
Weather: no significant weather observed at this time

METAR text: MMPB 211946Z 13003G13KT 8SM SKC 26/01 A3029 RMK HZY CU
Conditions at: MMPB (PUEBLA , MX) observed 1946 UTC 21 April 2019
Temperature: 26.0°C (79°F)
Dewpoint: 1.0°C (34°F) [RH = 20%]
Pressure (altimeter): 30.29 inches Hg (1025.8 mb)
Winds: from the SE (130 degrees) at 3 MPH (3 knots; 1.5 m/s)
gusting to 15 MPH (13 knots; 6.7 m/s)
Visibility: 8 miles (13 km)
Ceiling: at least 12,000 feet AGL
Clouds: clear skies
Weather: no significant weather observed at this time

METAR text: MMPB 211847Z 16006KT 8SM SKC 26/01 A3032 RMK HZY PRESFR
Conditions at: MMPB (PUEBLA , MX) observed 1847 UTC 21 April 2019
Temperature: 26.0°C (79°F)
Dewpoint: 1.0°C (34°F) [RH = 20%]
Pressure (altimeter): 30.32 inches Hg (1026.8 mb)
Winds: from the SSE (160 degrees) at 7 MPH (6 knots; 3.1 m/s)
Visibility: 8 miles (13 km)
Ceiling: at least 12,000 feet AGL
Clouds: clear skies
Weather: no significant weather observed at this time

METAR text: MMPB 211743Z 18002KT 7SM SKC 24/02 A3036 RMK HZY
Conditions at: MMPB (PUEBLA , MX) observed 1743 UTC 21 April 2019
Temperature: 24.0°C (75°F)
Dewpoint: 2.0°C (36°F) [RH = 24%]
Pressure (altimeter): 30.36 inches Hg (1028.2 mb)
Winds: from the S (180 degrees) at 2 MPH (2 knots; 1.0 m/s)
Visibility: 7 miles (11 km)
Ceiling: at least 12,000 feet AGL
Clouds: clear skies
Weather: no significant weather observed at this time

METAR text: MMPB 211643Z 14006KT 7SM SKC 22/02 A3039 RMK HZY
Conditions at: MMPB (PUEBLA , MX) observed 1643 UTC 21 April 2019
Temperature: 22.0°C (72°F)
Dewpoint: 2.0°C (36°F) [RH = 27%]
Pressure (altimeter): 30.39 inches Hg (1029.2 mb)
Winds: from the SE (140 degrees) at 7 MPH (6 knots; 3.1 m/s)
Visibility: 7 miles (11 km)
Ceiling: at least 12,000 feet AGL
Clouds: clear skies
Weather: no significant weather observed at this time

METAR text: MMPB 211542Z 15004KT 7SM SKC 20/01 A3040 RMK HZY
Conditions at: MMPB (PUEBLA , MX) observed 1542 UTC 21 April 2019
Temperature: 20.0°C (68°F)
Dewpoint: 1.0°C (34°F) [RH = 28%]
Pressure (altimeter): 30.40 inches Hg (1029.5 mb)
Winds: from the SSE (150 degrees) at 5 MPH (4 knots; 2.1 m/s)
Visibility: 7 miles (11 km)
Ceiling: at least 12,000 feet AGL
Clouds: clear skies
Weather: no significant weather observed at this time

METAR text: MMPB 211442Z 05004KT 7SM SKC 16/M01 A3040 RMK HZY
Conditions at: MMPB (PUEBLA , MX) observed 1442 UTC 21 April 2019
Temperature: 16.0°C (61°F)
Dewpoint: -1.0°C (30°F) [RH = 31%]
Pressure (altimeter): 30.40 inches Hg (1029.5 mb)
Winds: from the NE (50 degrees) at 5 MPH (4 knots; 2.1 m/s)
Visibility: 7 miles (11 km)
Ceiling: at least 12,000 feet AGL
Clouds: clear skies
Weather: no significant weather observed at this time

METAR text: MMPB 211344Z 32004KT 7SM SKC 12/01 A3039 RMK HZY
Conditions at: MMPB (PUEBLA , MX) observed 1344 UTC 21 April 2019
Temperature: 12.0°C (54°F)
Dewpoint: 1.0°C (34°F) [RH = 47%]
Pressure (altimeter): 30.39 inches Hg (1029.2 mb)
Winds: from the NW (320 degrees) at 5 MPH (4 knots; 2.1 m/s)
Visibility: 7 miles (11 km)
Ceiling: at least 12,000 feet AGL
Clouds: clear skies
Weather: no significant weather observed at this time

METAR text: MMPB 211200Z RTD 32005KT 8SM SKC 08/M01 A3036 RMK HZY RTS
Conditions at: MMPB (PUEBLA , MX) observed 1200 UTC 21 April 2019
Temperature: 8.0°C (46°F)
Dewpoint: -1.0°C (30°F) [RH = 53%]
Pressure (altimeter): 30.36 inches Hg (1028.2 mb)
Winds: from the NW (320 degrees) at 6 MPH (5 knots; 2.6 m/s)
Visibility: 8 miles (13 km)
Ceiling: at least 12,000 feet AGL
Clouds: clear skies
Weather: no significant weather observed at this time

METAR text: MMPB 210048Z 17009KT 10SM FEW090 20/00 A3030 RMK 8/030
Conditions at: MMPB (PUEBLA , MX) observed 0048 UTC 21 April 2019
Temperature: 20.0°C (68°F)
Dewpoint: 0.0°C (32°F) [RH = 26%]
Pressure (altimeter): 30.30 inches Hg (1026.2 mb)
Winds: from the S (170 degrees) at 10 MPH (9 knots; 4.6 m/s)
Visibility: 10 or more miles (16+ km)
Ceiling: at least 12,000 feet AGL
Clouds: few clouds at 9000 feet AGL
Weather: no significant weather observed at this time

METAR text: MMPB 202347Z 18013KT 10SM SCT090 23/01 A3027 RMK 8/030
Conditions at: MMPB (PUEBLA , MX) observed 2347 UTC 20 April 2019
Temperature: 23.0°C (73°F)
Dewpoint: 1.0°C (34°F) [RH = 23%]
Pressure (altimeter): 30.27 inches Hg (1025.1 mb)
Winds: from the S (180 degrees) at 15 MPH (13 knots; 6.7 m/s)
Visibility: 10 or more miles (16+ km)
Ceiling: at least 12,000 feet AGL
Clouds: scattered clouds at 9000 feet AGL
Weather: no significant weather observed at this time

METAR text: MMPB 202245Z 20014KT 9SM FEW025 FEW090 25/01 A3026 RMK 8/130 HZY
Conditions at: MMPB (PUEBLA , MX) observed 2245 UTC 20 April 2019
Temperature: 25.0°C (77°F)
Dewpoint: 1.0°C (34°F) [RH = 21%]
Pressure (altimeter): 30.26 inches Hg (1024.8 mb)
Winds: from the SSW (200 degrees) at 16 MPH (14 knots; 7.2 m/s)
Visibility: 9 miles (14 km)
Ceiling: at least 12,000 feet AGL
Clouds: few clouds at 2500 feet AGL
few clouds at 9000 feet AGL
Weather: no significant weather observed at this time

METAR text: MMPB 202143Z 19019KT 9SM FEW025 26/00 A3027 RMK 8/100 HZY
Conditions at: MMPB (PUEBLA , MX) observed 2143 UTC 20 April 2019
Temperature: 26.0°C (79°F)
Dewpoint: 0.0°C (32°F) [RH = 18%]
Pressure (altimeter): 30.27 inches Hg (1025.1 mb)
Winds: from the S (190 degrees) at 22 MPH (19 knots; 9.8 m/s)
Visibility: 9 miles (14 km)
Ceiling: at least 12,000 feet AGL
Clouds: few clouds at 2500 feet AGL
Weather: no significant weather observed at this time

METAR text: MMPB 202044Z 19011KT 9SM FEW020 26/00 A3028 RMK 8/100 HZY PRESFR
Conditions at: MMPB (PUEBLA , MX) observed 2044 UTC 20 April 2019
Temperature: 26.0°C (79°F)
Dewpoint: 0.0°C (32°F) [RH = 18%]
Pressure (altimeter): 30.28 inches Hg (1025.5 mb)
Winds: from the S (190 degrees) at 13 MPH (11 knots; 5.7 m/s)
Visibility: 9 miles (14 km)
Ceiling: at least 12,000 feet AGL
Clouds: few clouds at 2000 feet AGL
Weather: no significant weather observed at this time

METAR text: MMPB 201947Z 28002KT 9SM FEW020 26/00 A3032 RMK 8/100 HZY
Conditions at: MMPB (PUEBLA , MX) observed 1947 UTC 20 April 2019
Temperature: 26.0°C (79°F)
Dewpoint: 0.0°C (32°F) [RH = 18%]
Pressure (altimeter): 30.32 inches Hg (1026.8 mb)
Winds: from the W (280 degrees) at 2 MPH (2 knots; 1.0 m/s)
Visibility: 9 miles (14 km)
Ceiling: at least 12,000 feet AGL
Clouds: few clouds at 2000 feet AGL
Weather: no significant weather observed at this time

METAR text: MMPB 201844Z 23003KT 9SM FEW020 24/00 A3035 RMK 8/100 HZY
Conditions at: MMPB (PUEBLA , MX) observed 1844 UTC 20 April 2019
Temperature: 24.0°C (75°F)
Dewpoint: 0.0°C (32°F) [RH = 20%]
Pressure (altimeter): 30.35 inches Hg (1027.9 mb)
Winds: from the SW (230 degrees) at 3 MPH (3 knots; 1.5 m/s)
Visibility: 9 miles (14 km)
Ceiling: at least 12,000 feet AGL
Clouds: few clouds at 2000 feet AGL
Weather: no significant weather observed at this time

METAR text: MMPB 201751Z 20005KT 9SM FEW020 22/00 A3039 RMK 8/100 HZY
Conditions at: MMPB (PUEBLA , MX) observed 1751 UTC 20 April 2019
Temperature: 22.0°C (72°F)
Dewpoint: 0.0°C (32°F) [RH = 23%]
Pressure (altimeter): 30.39 inches Hg (1029.2 mb)
Winds: from the SSW (200 degrees) at 6 MPH (5 knots; 2.6 m/s)
Visibility: 9 miles (14 km)
Ceiling: at least 12,000 feet AGL
Clouds: few clouds at 2000 feet AGL
Weather: no significant weather observed at this time

METAR text: MMPB 201647Z 02002KT 9SM SKC 20/M02 A3041 RMK HZY
Conditions at: MMPB (PUEBLA , MX) observed 1647 UTC 20 April 2019
Temperature: 20.0°C (68°F)
Dewpoint: -2.0°C (28°F) [RH = 23%]
Pressure (altimeter): 30.41 inches Hg (1029.9 mb)
Winds: from the NNE (20 degrees) at 2 MPH (2 knots; 1.0 m/s)
Visibility: 9 miles (14 km)
Ceiling: at least 12,000 feet AGL
Clouds: clear skies
Weather: no significant weather observed at this time

METAR text: MMPB 201542Z 05003KT 9SM SKC 18/M03 A3044 RMK HZY
Conditions at: MMPB (PUEBLA , MX) observed 1542 UTC 20 April 2019
Temperature: 18.0°C (64°F)
Dewpoint: -3.0°C (27°F) [RH = 24%]
Pressure (altimeter): 30.44 inches Hg (1030.9 mb)
Winds: from the NE (50 degrees) at 3 MPH (3 knots; 1.5 m/s)
Visibility: 9 miles (14 km)
Ceiling: at least 12,000 feet AGL
Clouds: clear skies
Weather: no significant weather observed at this time

Forecast for: MMPB (PUEBLA , MX)
Text: TAF MMPB 211624Z 2118/2218 16010KT P6SM SKC
Forecast period: 1800 to 2100 UTC 21 April 2019
Forecast type: FROM: standard forecast or significant change
Winds: from the SSE (160 degrees) at 12 MPH (10 knots; 5.1 m/s)
Visibility: 6 or more miles 10+ km)
Clouds: clear skies
Weather: no significant weather forecast for this period
Text: FM212100 18015KT P6SM SCT025
Forecast period: 2100 UTC 21 April 2019 to 0300 UTC 22 April 2019
Forecast type: FROM: standard forecast or significant change
Winds: from the S (180 degrees) at 17 MPH (15 knots; 7.7 m/s)
Visibility: 6 or more miles 10+ km)
Ceiling: at least 12,000 feet AGL
Clouds: scattered clouds at 2500 feet AGL
Weather: no significant weather forecast for this period
Text: FM220300 04005KT P6SM SCT250
Forecast period: 0300 to 1800 UTC 22 April 2019
Forecast type: FROM: standard forecast or significant change
Winds: from the NE (40 degrees) at 6 MPH (5 knots; 2.6 m/s)
Visibility: 6 or more miles 10+ km)
Ceiling: at least 12,000 feet AGL
Clouds: scattered clouds at 25000 feet AGL
Weather: no significant weather forecast for this period